sensor_id;sensor_type;location;lat;lon;timestamp;P1;durP1;ratioP1;P2;durP2;ratioP2
15425;SDS011;7812;50.072;7.036;2023-06-26T00:00:12;4.77;;;4.37;;
15425;SDS011;7812;50.072;7.036;2023-06-26T00:02:38;5.13;;;4.73;;
15425;SDS011;7812;50.072;7.036;2023-06-26T00:05:04;4.80;;;4.40;;
15425;SDS011;7812;50.072;7.036;2023-06-26T00:07:30;5.13;;;4.20;;
15425;SDS011;7812;50.072;7.036;2023-06-26T00:09:59;5.23;;;4.73;;
15425;SDS011;7812;50.072;7.036;2023-06-26T00:12:25;5.00;;;4.57;;
15425;SDS011;7812;50.072;7.036;2023-06-26T00:14:50;4.70;;;4.30;;
15425;SDS011;7812;50.072;7.036;2023-06-26T00:17:16;5.30;;;4.87;;
15425;SDS011;7812;50.072;7.036;2023-06-26T00:19:42;5.10;;;4.60;;
15425;SDS011;7812;50.072;7.036;2023-06-26T00:22:07;5.57;;;5.07;;
15425;SDS011;7812;50.072;7.036;2023-06-26T00:24:33;4.97;;;4.57;;
15425;SDS011;7812;50.072;7.036;2023-06-26T00:26:58;5.77;;;4.70;;
15425;SDS011;7812;50.072;7.036;2023-06-26T00:29:24;5.20;;;4.77;;
15425;SDS011;7812;50.072;7.036;2023-06-26T00:31:50;5.37;;;4.40;;
15425;SDS011;7812;50.072;7.036;2023-06-26T00:34:15;5.10;;;4.70;;
15425;SDS011;7812;50.072;7.036;2023-06-26T00:36:41;5.00;;;4.60;;
15425;SDS011;7812;50.072;7.036;2023-06-26T00:39:08;6.33;;;4.77;;
15425;SDS011;7812;50.072;7.036;2023-06-26T00:41:35;4.90;;;4.50;;
15425;SDS011;7812;50.072;7.036;2023-06-26T00:44:02;5.90;;;5.17;;
15425;SDS011;7812;50.072;7.036;2023-06-26T00:46:28;5.40;;;4.90;;
15425;SDS011;7812;50.072;7.036;2023-06-26T00:48:54;4.83;;;4.43;;
15425;SDS011;7812;50.072;7.036;2023-06-26T00:51:23;6.23;;;5.07;;
15425;SDS011;7812;50.072;7.036;2023-06-26T00:53:49;5.07;;;4.67;;
15425;SDS011;7812;50.072;7.036;2023-06-26T00:56:15;5.23;;;4.73;;
15425;SDS011;7812;50.072;7.036;2023-06-26T00:58:42;5.33;;;4.93;;
15425;SDS011;7812;50.072;7.036;2023-06-26T01:01:08;5.73;;;5.23;;
15425;SDS011;7812;50.072;7.036;2023-06-26T01:03:34;5.27;;;4.77;;
15425;SDS011;7812;50.072;7.036;2023-06-26T01:06:02;5.00;;;4.57;;
15425;SDS011;7812;50.072;7.036;2023-06-26T01:08:28;5.37;;;4.87;;
15425;SDS011;7812;50.072;7.036;2023-06-26T01:10:54;6.00;;;5.47;;
15425;SDS011;7812;50.072;7.036;2023-06-26T01:13:20;5.27;;;4.77;;
15425;SDS011;7812;50.072;7.036;2023-06-26T01:15:46;5.47;;;5.03;;
15425;SDS011;7812;50.072;7.036;2023-06-26T01:18:12;5.27;;;4.80;;
15425;SDS011;7812;50.072;7.036;2023-06-26T01:20:40;5.77;;;5.20;;
15425;SDS011;7812;50.072;7.036;2023-06-26T01:23:24;5.63;;;5.13;;
15425;SDS011;7812;50.072;7.036;2023-06-26T01:28:41;4.87;;;4.47;;
15425;SDS011;7812;50.072;7.036;2023-06-26T01:31:07;5.63;;;5.13;;
15425;SDS011;7812;50.072;7.036;2023-06-26T01:33:33;5.63;;;5.13;;
15425;SDS011;7812;50.072;7.036;2023-06-26T01:36:00;6.13;;;5.10;;
15425;SDS011;7812;50.072;7.036;2023-06-26T01:38:26;5.37;;;4.87;;
15425;SDS011;7812;50.072;7.036;2023-06-26T01:40:52;5.63;;;5.13;;
15425;SDS011;7812;50.072;7.036;2023-06-26T01:46:06;6.43;;;5.27;;
15425;SDS011;7812;50.072;7.036;2023-06-26T01:48:55;5.53;;;5.03;;
15425;SDS011;7812;50.072;7.036;2023-06-26T01:51:30;5.00;;;4.50;;
15425;SDS011;7812;50.072;7.036;2023-06-26T01:53:57;6.47;;;4.93;;
15425;SDS011;7812;50.072;7.036;2023-06-26T01:56:25;5.27;;;4.87;;
15425;SDS011;7812;50.072;7.036;2023-06-26T01:58:53;5.30;;;4.80;;
15425;SDS011;7812;50.072;7.036;2023-06-26T02:01:20;5.53;;;5.03;;
15425;SDS011;7812;50.072;7.036;2023-06-26T02:03:47;5.57;;;4.93;;
15425;SDS011;7812;50.072;7.036;2023-06-26T02:06:13;5.30;;;4.80;;
15425;SDS011;7812;50.072;7.036;2023-06-26T02:08:39;5.97;;;5.47;;
15425;SDS011;7812;50.072;7.036;2023-06-26T02:11:05;6.07;;;5.47;;
15425;SDS011;7812;50.072;7.036;2023-06-26T02:13:30;5.30;;;4.87;;
15425;SDS011;7812;50.072;7.036;2023-06-26T02:15:56;5.77;;;5.13;;
15425;SDS011;7812;50.072;7.036;2023-06-26T02:18:22;5.73;;;5.10;;
15425;SDS011;7812;50.072;7.036;2023-06-26T02:20:48;5.47;;;4.97;;
15425;SDS011;7812;50.072;7.036;2023-06-26T02:23:14;5.20;;;4.70;;
15425;SDS011;7812;50.072;7.036;2023-06-26T02:25:40;5.33;;;4.93;;
15425;SDS011;7812;50.072;7.036;2023-06-26T02:28:05;6.73;;;5.30;;
15425;SDS011;7812;50.072;7.036;2023-06-26T02:30:31;5.60;;;5.10;;
15425;SDS011;7812;50.072;7.036;2023-06-26T02:32:57;6.20;;;5.30;;
15425;SDS011;7812;50.072;7.036;2023-06-26T02:35:22;5.40;;;4.90;;
15425;SDS011;7812;50.072;7.036;2023-06-26T02:37:51;5.47;;;4.97;;
15425;SDS011;7812;50.072;7.036;2023-06-26T02:40:16;5.70;;;5.10;;
15425;SDS011;7812;50.072;7.036;2023-06-26T02:42:42;5.40;;;4.80;;
15425;SDS011;7812;50.072;7.036;2023-06-26T02:45:08;5.50;;;5.00;;
15425;SDS011;7812;50.072;7.036;2023-06-26T02:47:34;5.83;;;5.20;;
15425;SDS011;7812;50.072;7.036;2023-06-26T02:50:00;5.53;;;5.03;;
15425;SDS011;7812;50.072;7.036;2023-06-26T02:52:25;5.67;;;5.17;;
15425;SDS011;7812;50.072;7.036;2023-06-26T02:54:51;5.57;;;5.07;;
15425;SDS011;7812;50.072;7.036;2023-06-26T02:57:16;7.73;;;5.47;;
15425;SDS011;7812;50.072;7.036;2023-06-26T02:59:42;6.20;;;5.60;;
15425;SDS011;7812;50.072;7.036;2023-06-26T03:02:08;5.53;;;5.03;;
15425;SDS011;7812;50.072;7.036;2023-06-26T03:04:33;5.13;;;4.73;;
15425;SDS011;7812;50.072;7.036;2023-06-26T03:07:02;5.23;;;4.83;;
15425;SDS011;7812;50.072;7.036;2023-06-26T03:09:29;5.20;;;4.70;;
15425;SDS011;7812;50.072;7.036;2023-06-26T03:11:54;5.33;;;4.83;;
15425;SDS011;7812;50.072;7.036;2023-06-26T03:14:20;5.50;;;5.07;;
15425;SDS011;7812;50.072;7.036;2023-06-26T03:16:46;5.77;;;5.27;;
15425;SDS011;7812;50.072;7.036;2023-06-26T03:19:12;5.43;;;4.70;;
15425;SDS011;7812;50.072;7.036;2023-06-26T03:21:37;5.90;;;5.40;;
15425;SDS011;7812;50.072;7.036;2023-06-26T03:24:03;5.43;;;5.03;;
15425;SDS011;7812;50.072;7.036;2023-06-26T03:26:29;5.27;;;4.87;;
15425;SDS011;7812;50.072;7.036;2023-06-26T03:28:54;5.70;;;5.20;;
15425;SDS011;7812;50.072;7.036;2023-06-26T03:31:20;5.73;;;5.23;;
15425;SDS011;7812;50.072;7.036;2023-06-26T03:33:46;5.67;;;5.17;;
15425;SDS011;7812;50.072;7.036;2023-06-26T03:36:12;5.93;;;5.43;;
15425;SDS011;7812;50.072;7.036;2023-06-26T03:38:37;5.47;;;4.97;;
15425;SDS011;7812;50.072;7.036;2023-06-26T03:41:03;6.07;;;5.57;;
15425;SDS011;7812;50.072;7.036;2023-06-26T03:43:29;5.23;;;4.83;;
15425;SDS011;7812;50.072;7.036;2023-06-26T03:45:54;5.40;;;4.90;;
15425;SDS011;7812;50.072;7.036;2023-06-26T03:48:20;5.57;;;5.07;;
15425;SDS011;7812;50.072;7.036;2023-06-26T03:50:46;5.60;;;5.10;;
15425;SDS011;7812;50.072;7.036;2023-06-26T03:53:11;5.40;;;4.93;;
15425;SDS011;7812;50.072;7.036;2023-06-26T03:55:37;5.70;;;5.20;;
15425;SDS011;7812;50.072;7.036;2023-06-26T03:58:06;5.97;;;5.47;;
15425;SDS011;7812;50.072;7.036;2023-06-26T04:00:31;5.43;;;4.93;;
15425;SDS011;7812;50.072;7.036;2023-06-26T04:02:57;5.50;;;5.00;;
15425;SDS011;7812;50.072;7.036;2023-06-26T04:05:23;5.60;;;5.10;;
15425;SDS011;7812;50.072;7.036;2023-06-26T04:07:51;5.50;;;5.00;;
15425;SDS011;7812;50.072;7.036;2023-06-26T04:10:18;6.00;;;5.50;;
15425;SDS011;7812;50.072;7.036;2023-06-26T04:12:45;5.67;;;5.07;;
15425;SDS011;7812;50.072;7.036;2023-06-26T04:15:11;5.47;;;4.97;;
15425;SDS011;7812;50.072;7.036;2023-06-26T04:17:36;5.60;;;5.10;;
15425;SDS011;7812;50.072;7.036;2023-06-26T04:20:02;5.30;;;4.80;;
15425;SDS011;7812;50.072;7.036;2023-06-26T04:22:31;5.70;;;5.20;;
15425;SDS011;7812;50.072;7.036;2023-06-26T04:24:57;5.93;;;5.33;;
15425;SDS011;7812;50.072;7.036;2023-06-26T04:27:23;5.10;;;4.70;;
15425;SDS011;7812;50.072;7.036;2023-06-26T04:29:49;7.07;;;5.27;;
15425;SDS011;7812;50.072;7.036;2023-06-26T04:32:14;5.50;;;5.00;;
15425;SDS011;7812;50.072;7.036;2023-06-26T04:34:40;5.67;;;5.10;;
15425;SDS011;7812;50.072;7.036;2023-06-26T04:37:08;5.40;;;5.00;;
15425;SDS011;7812;50.072;7.036;2023-06-26T04:39:35;5.17;;;4.73;;
15425;SDS011;7812;50.072;7.036;2023-06-26T04:42:02;5.67;;;5.17;;
15425;SDS011;7812;50.072;7.036;2023-06-26T04:44:28;6.10;;;5.07;;
15425;SDS011;7812;50.072;7.036;2023-06-26T04:46:54;5.70;;;5.20;;
15425;SDS011;7812;50.072;7.036;2023-06-26T04:49:19;5.40;;;4.90;;
15425;SDS011;7812;50.072;7.036;2023-06-26T04:51:45;5.70;;;5.20;;
15425;SDS011;7812;50.072;7.036;2023-06-26T04:54:11;5.07;;;4.67;;
15425;SDS011;7812;50.072;7.036;2023-06-26T04:56:37;5.30;;;4.87;;
15425;SDS011;7812;50.072;7.036;2023-06-26T04:59:04;5.30;;;4.87;;
15425;SDS011;7812;50.072;7.036;2023-06-26T05:01:31;5.60;;;5.10;;
15425;SDS011;7812;50.072;7.036;2023-06-26T05:03:57;5.47;;;4.97;;
15425;SDS011;7812;50.072;7.036;2023-06-26T05:06:26;6.03;;;4.83;;
15425;SDS011;7812;50.072;7.036;2023-06-26T05:08:51;5.37;;;4.87;;
15425;SDS011;7812;50.072;7.036;2023-06-26T05:11:17;5.43;;;4.93;;
15425;SDS011;7812;50.072;7.036;2023-06-26T05:13:43;5.10;;;4.60;;
15425;SDS011;7812;50.072;7.036;2023-06-26T05:16:08;5.47;;;5.07;;
15425;SDS011;7812;50.072;7.036;2023-06-26T05:18:35;5.60;;;5.10;;
15425;SDS011;7812;50.072;7.036;2023-06-26T05:21:01;7.77;;;5.20;;
15425;SDS011;7812;50.072;7.036;2023-06-26T05:23:31;5.70;;;5.00;;
15425;SDS011;7812;50.072;7.036;2023-06-26T05:25:59;4.80;;;4.40;;
15425;SDS011;7812;50.072;7.036;2023-06-26T05:28:26;5.27;;;4.77;;
15425;SDS011;7812;50.072;7.036;2023-06-26T05:30:53;5.60;;;4.90;;
15425;SDS011;7812;50.072;7.036;2023-06-26T05:33:20;5.13;;;4.70;;
15425;SDS011;7812;50.072;7.036;2023-06-26T05:35:48;5.50;;;4.73;;
15425;SDS011;7812;50.072;7.036;2023-06-26T05:38:16;5.30;;;4.80;;
15425;SDS011;7812;50.072;7.036;2023-06-26T05:40:42;5.13;;;4.73;;
15425;SDS011;7812;50.072;7.036;2023-06-26T05:43:08;4.47;;;4.07;;
15425;SDS011;7812;50.072;7.036;2023-06-26T05:45:34;4.87;;;4.40;;
15425;SDS011;7812;50.072;7.036;2023-06-26T05:47:59;5.23;;;4.80;;
15425;SDS011;7812;50.072;7.036;2023-06-26T05:50:26;5.30;;;4.80;;
15425;SDS011;7812;50.072;7.036;2023-06-26T05:52:53;4.80;;;4.40;;
15425;SDS011;7812;50.072;7.036;2023-06-26T05:55:19;6.50;;;5.00;;
15425;SDS011;7812;50.072;7.036;2023-06-26T05:57:46;5.10;;;4.70;;
15425;SDS011;7812;50.072;7.036;2023-06-26T06:00:12;5.30;;;4.80;;
15425;SDS011;7812;50.072;7.036;2023-06-26T06:02:38;5.10;;;4.57;;
15425;SDS011;7812;50.072;7.036;2023-06-26T06:05:05;5.20;;;4.40;;
15425;SDS011;7812;50.072;7.036;2023-06-26T06:07:32;4.47;;;4.10;;
15425;SDS011;7812;50.072;7.036;2023-06-26T06:09:58;5.17;;;4.67;;
15425;SDS011;7812;50.072;7.036;2023-06-26T06:12:24;4.70;;;4.30;;
15425;SDS011;7812;50.072;7.036;2023-06-26T06:14:49;5.30;;;4.80;;
15425;SDS011;7812;50.072;7.036;2023-06-26T06:17:16;4.23;;;3.93;;
15425;SDS011;7812;50.072;7.036;2023-06-26T06:19:41;4.93;;;4.43;;
15425;SDS011;7812;50.072;7.036;2023-06-26T06:22:07;4.73;;;4.33;;
15425;SDS011;7812;50.072;7.036;2023-06-26T06:24:33;5.10;;;4.60;;
15425;SDS011;7812;50.072;7.036;2023-06-26T06:26:58;4.83;;;4.43;;
15425;SDS011;7812;50.072;7.036;2023-06-26T06:29:24;4.60;;;4.20;;
15425;SDS011;7812;50.072;7.036;2023-06-26T06:31:49;4.93;;;4.53;;
15425;SDS011;7812;50.072;7.036;2023-06-26T06:34:16;5.23;;;4.73;;
15425;SDS011;7812;50.072;7.036;2023-06-26T06:36:42;5.40;;;4.43;;
15425;SDS011;7812;50.072;7.036;2023-06-26T06:39:07;4.93;;;4.43;;
15425;SDS011;7812;50.072;7.036;2023-06-26T06:41:33;4.80;;;3.87;;
15425;SDS011;7812;50.072;7.036;2023-06-26T06:43:59;5.00;;;4.60;;
15425;SDS011;7812;50.072;7.036;2023-06-26T06:46:25;4.47;;;4.07;;
15425;SDS011;7812;50.072;7.036;2023-06-26T06:48:52;4.67;;;4.23;;
15425;SDS011;7812;50.072;7.036;2023-06-26T06:51:18;4.07;;;3.67;;
15425;SDS011;7812;50.072;7.036;2023-06-26T06:53:43;7.67;;;4.57;;
15425;SDS011;7812;50.072;7.036;2023-06-26T06:56:09;5.07;;;4.57;;
15425;SDS011;7812;50.072;7.036;2023-06-26T06:58:35;5.57;;;4.30;;
15425;SDS011;7812;50.072;7.036;2023-06-26T07:01:01;5.03;;;4.27;;
15425;SDS011;7812;50.072;7.036;2023-06-26T07:03:29;4.50;;;4.10;;
15425;SDS011;7812;50.072;7.036;2023-06-26T07:05:55;4.73;;;4.13;;
15425;SDS011;7812;50.072;7.036;2023-06-26T07:08:21;5.93;;;4.60;;
15425;SDS011;7812;50.072;7.036;2023-06-26T07:10:46;4.80;;;4.00;;
15425;SDS011;7812;50.072;7.036;2023-06-26T07:13:12;5.20;;;3.97;;
15425;SDS011;7812;50.072;7.036;2023-06-26T07:15:37;4.43;;;4.07;;
15425;SDS011;7812;50.072;7.036;2023-06-26T07:18:04;4.70;;;4.30;;
15425;SDS011;7812;50.072;7.036;2023-06-26T07:20:29;4.60;;;4.20;;
15425;SDS011;7812;50.072;7.036;2023-06-26T07:22:55;5.67;;;3.97;;
15425;SDS011;7812;50.072;7.036;2023-06-26T07:25:20;5.30;;;4.50;;
15425;SDS011;7812;50.072;7.036;2023-06-26T07:27:46;3.97;;;3.67;;
15425;SDS011;7812;50.072;7.036;2023-06-26T07:30:12;4.90;;;4.40;;
15425;SDS011;7812;50.072;7.036;2023-06-26T07:32:38;4.40;;;4.00;;
15425;SDS011;7812;50.072;7.036;2023-06-26T07:35:05;4.87;;;4.37;;
15425;SDS011;7812;50.072;7.036;2023-06-26T07:37:31;5.10;;;4.60;;
15425;SDS011;7812;50.072;7.036;2023-06-26T07:39:57;5.97;;;4.50;;
15425;SDS011;7812;50.072;7.036;2023-06-26T07:42:23;5.53;;;4.37;;
15425;SDS011;7812;50.072;7.036;2023-06-26T07:44:48;4.83;;;4.00;;
15425;SDS011;7812;50.072;7.036;2023-06-26T07:47:14;5.90;;;4.00;;
15425;SDS011;7812;50.072;7.036;2023-06-26T07:49:40;7.40;;;4.10;;
15425;SDS011;7812;50.072;7.036;2023-06-26T07:52:06;4.67;;;3.77;;
15425;SDS011;7812;50.072;7.036;2023-06-26T07:54:35;4.30;;;3.90;;
15425;SDS011;7812;50.072;7.036;2023-06-26T07:57:01;6.77;;;3.70;;
15425;SDS011;7812;50.072;7.036;2023-06-26T07:59:29;4.60;;;3.53;;
15425;SDS011;7812;50.072;7.036;2023-06-26T08:01:56;3.73;;;3.43;;
15425;SDS011;7812;50.072;7.036;2023-06-26T08:04:23;5.43;;;3.53;;
15425;SDS011;7812;50.072;7.036;2023-06-26T08:06:50;4.53;;;3.33;;
15425;SDS011;7812;50.072;7.036;2023-06-26T08:09:18;3.57;;;3.27;;
15425;SDS011;7812;50.072;7.036;2023-06-26T08:11:45;4.33;;;3.30;;
15425;SDS011;7812;50.072;7.036;2023-06-26T08:14:11;3.50;;;3.07;;
15425;SDS011;7812;50.072;7.036;2023-06-26T08:16:40;4.17;;;3.17;;
15425;SDS011;7812;50.072;7.036;2023-06-26T08:19:07;4.53;;;3.20;;
15425;SDS011;7812;50.072;7.036;2023-06-26T08:21:33;4.93;;;3.43;;
15425;SDS011;7812;50.072;7.036;2023-06-26T08:23:59;3.30;;;3.00;;
15425;SDS011;7812;50.072;7.036;2023-06-26T08:26:24;2.83;;;2.63;;
15425;SDS011;7812;50.072;7.036;2023-06-26T08:28:50;3.20;;;2.90;;
15425;SDS011;7812;50.072;7.036;2023-06-26T08:31:16;3.50;;;2.47;;
15425;SDS011;7812;50.072;7.036;2023-06-26T08:33:42;3.10;;;2.40;;
15425;SDS011;7812;50.072;7.036;2023-06-26T08:36:08;3.10;;;2.37;;
15425;SDS011;7812;50.072;7.036;2023-06-26T08:38:33;2.37;;;2.17;;
15425;SDS011;7812;50.072;7.036;2023-06-26T08:40:59;2.60;;;2.40;;
15425;SDS011;7812;50.072;7.036;2023-06-26T08:43:25;2.60;;;2.10;;
15425;SDS011;7812;50.072;7.036;2023-06-26T08:45:52;3.30;;;2.13;;
15425;SDS011;7812;50.072;7.036;2023-06-26T08:48:18;2.53;;;2.20;;
15425;SDS011;7812;50.072;7.036;2023-06-26T08:50:49;2.53;;;2.33;;
15425;SDS011;7812;50.072;7.036;2023-06-26T08:53:23;2.30;;;2.03;;
15425;SDS011;7812;50.072;7.036;2023-06-26T08:56:12;2.13;;;1.90;;
15425;SDS011;7812;50.072;7.036;2023-06-26T08:58:42;3.10;;;2.00;;
15425;SDS011;7812;50.072;7.036;2023-06-26T09:01:08;3.33;;;1.97;;
15425;SDS011;7812;50.072;7.036;2023-06-26T09:03:35;2.93;;;1.90;;
15425;SDS011;7812;50.072;7.036;2023-06-26T09:06:01;2.77;;;2.03;;
15425;SDS011;7812;50.072;7.036;2023-06-26T09:08:27;2.10;;;1.90;;
15425;SDS011;7812;50.072;7.036;2023-06-26T09:10:53;3.10;;;1.87;;
15425;SDS011;7812;50.072;7.036;2023-06-26T09:13:19;4.13;;;2.03;;
15425;SDS011;7812;50.072;7.036;2023-06-26T09:15:45;3.23;;;1.93;;
15425;SDS011;7812;50.072;7.036;2023-06-26T09:18:11;2.00;;;1.80;;
15425;SDS011;7812;50.072;7.036;2023-06-26T09:20:38;3.50;;;2.07;;
15425;SDS011;7812;50.072;7.036;2023-06-26T09:23:04;3.00;;;2.00;;
15425;SDS011;7812;50.072;7.036;2023-06-26T09:25:30;3.23;;;2.27;;
15425;SDS011;7812;50.072;7.036;2023-06-26T09:27:56;2.37;;;1.80;;
15425;SDS011;7812;50.072;7.036;2023-06-26T09:30:22;2.10;;;1.90;;
15425;SDS011;7812;50.072;7.036;2023-06-26T09:32:48;3.03;;;1.77;;
15425;SDS011;7812;50.072;7.036;2023-06-26T09:35:19;2.23;;;2.03;;
15425;SDS011;7812;50.072;7.036;2023-06-26T09:37:45;2.67;;;2.00;;
15425;SDS011;7812;50.072;7.036;2023-06-26T09:40:10;1.77;;;1.67;;
15425;SDS011;7812;50.072;7.036;2023-06-26T09:42:38;3.20;;;2.07;;
15425;SDS011;7812;50.072;7.036;2023-06-26T09:45:04;3.00;;;1.83;;
15425;SDS011;7812;50.072;7.036;2023-06-26T09:47:30;2.90;;;2.00;;
15425;SDS011;7812;50.072;7.036;2023-06-26T09:50:01;2.37;;;1.83;;
15425;SDS011;7812;50.072;7.036;2023-06-26T09:52:29;5.10;;;2.20;;
15425;SDS011;7812;50.072;7.036;2023-06-26T09:55:07;3.10;;;2.00;;
15425;SDS011;7812;50.072;7.036;2023-06-26T09:57:35;2.37;;;1.77;;
15425;SDS011;7812;50.072;7.036;2023-06-26T10:00:02;1.67;;;1.33;;
15425;SDS011;7812;50.072;7.036;2023-06-26T10:02:29;2.60;;;2.10;;
15425;SDS011;7812;50.072;7.036;2023-06-26T10:04:55;2.80;;;1.90;;
15425;SDS011;7812;50.072;7.036;2023-06-26T10:07:21;3.30;;;2.30;;
15425;SDS011;7812;50.072;7.036;2023-06-26T10:09:47;3.50;;;2.17;;
15425;SDS011;7812;50.072;7.036;2023-06-26T10:12:21;2.30;;;1.73;;
15425;SDS011;7812;50.072;7.036;2023-06-26T10:14:52;3.00;;;1.83;;
15425;SDS011;7812;50.072;7.036;2023-06-26T10:17:20;3.93;;;2.60;;
15425;SDS011;7812;50.072;7.036;2023-06-26T10:19:46;2.80;;;2.20;;
15425;SDS011;7812;50.072;7.036;2023-06-26T10:22:16;2.30;;;2.00;;
15425;SDS011;7812;50.072;7.036;2023-06-26T10:24:43;4.67;;;2.07;;
15425;SDS011;7812;50.072;7.036;2023-06-26T10:27:21;3.50;;;2.20;;
15425;SDS011;7812;50.072;7.036;2023-06-26T10:29:54;5.27;;;2.10;;
15425;SDS011;7812;50.072;7.036;2023-06-26T10:32:22;3.13;;;2.03;;
15425;SDS011;7812;50.072;7.036;2023-06-26T10:34:50;2.77;;;1.90;;
15425;SDS011;7812;50.072;7.036;2023-06-26T10:37:16;2.97;;;2.30;;
15425;SDS011;7812;50.072;7.036;2023-06-26T10:39:45;3.77;;;2.03;;
15425;SDS011;7812;50.072;7.036;2023-06-26T10:42:13;2.87;;;1.80;;
15425;SDS011;7812;50.072;7.036;2023-06-26T10:44:40;3.80;;;2.10;;
15425;SDS011;7812;50.072;7.036;2023-06-26T10:47:08;3.43;;;2.10;;
15425;SDS011;7812;50.072;7.036;2023-06-26T10:49:34;3.27;;;2.10;;
15425;SDS011;7812;50.072;7.036;2023-06-26T10:52:01;2.37;;;2.00;;
15425;SDS011;7812;50.072;7.036;2023-06-26T10:54:31;3.07;;;2.03;;
15425;SDS011;7812;50.072;7.036;2023-06-26T10:56:58;2.63;;;1.83;;
15425;SDS011;7812;50.072;7.036;2023-06-26T10:59:28;4.57;;;2.13;;
15425;SDS011;7812;50.072;7.036;2023-06-26T11:01:56;1.87;;;1.77;;
15425;SDS011;7812;50.072;7.036;2023-06-26T11:04:40;2.40;;;1.70;;
15425;SDS011;7812;50.072;7.036;2023-06-26T11:10:07;4.10;;;1.80;;
15425;SDS011;7812;50.072;7.036;2023-06-26T11:15:11;2.20;;;1.60;;
15425;SDS011;7812;50.072;7.036;2023-06-26T11:17:38;3.97;;;2.00;;
15425;SDS011;7812;50.072;7.036;2023-06-26T11:20:05;1.73;;;1.60;;
15425;SDS011;7812;50.072;7.036;2023-06-26T11:22:36;4.77;;;1.90;;
15425;SDS011;7812;50.072;7.036;2023-06-26T11:25:03;1.83;;;1.57;;
15425;SDS011;7812;50.072;7.036;2023-06-26T11:27:31;2.70;;;1.80;;
15425;SDS011;7812;50.072;7.036;2023-06-26T11:30:04;2.43;;;1.77;;
15425;SDS011;7812;50.072;7.036;2023-06-26T11:32:31;3.50;;;1.87;;
15425;SDS011;7812;50.072;7.036;2023-06-26T11:34:58;3.20;;;1.80;;
15425;SDS011;7812;50.072;7.036;2023-06-26T11:37:24;4.83;;;1.70;;
15425;SDS011;7812;50.072;7.036;2023-06-26T11:39:50;2.47;;;1.80;;
15425;SDS011;7812;50.072;7.036;2023-06-26T11:42:17;3.97;;;1.70;;
15425;SDS011;7812;50.072;7.036;2023-06-26T11:44:43;3.13;;;1.67;;
15425;SDS011;7812;50.072;7.036;2023-06-26T11:47:27;1.77;;;1.57;;
15425;SDS011;7812;50.072;7.036;2023-06-26T11:49:52;2.27;;;1.30;;
15425;SDS011;7812;50.072;7.036;2023-06-26T11:52:18;1.70;;;1.60;;
15425;SDS011;7812;50.072;7.036;2023-06-26T11:54:44;2.80;;;1.40;;
15425;SDS011;7812;50.072;7.036;2023-06-26T11:57:14;3.00;;;1.40;;
15425;SDS011;7812;50.072;7.036;2023-06-26T11:59:40;1.90;;;1.20;;
15425;SDS011;7812;50.072;7.036;2023-06-26T12:02:09;2.03;;;1.30;;
15425;SDS011;7812;50.072;7.036;2023-06-26T12:04:39;2.43;;;1.30;;
15425;SDS011;7812;50.072;7.036;2023-06-26T12:07:07;4.83;;;2.10;;
15425;SDS011;7812;50.072;7.036;2023-06-26T12:09:41;1.60;;;1.20;;
15425;SDS011;7812;50.072;7.036;2023-06-26T12:12:11;2.53;;;1.30;;
15425;SDS011;7812;50.072;7.036;2023-06-26T12:14:39;3.03;;;1.30;;
15425;SDS011;7812;50.072;7.036;2023-06-26T12:17:12;3.90;;;1.40;;
15425;SDS011;7812;50.072;7.036;2023-06-26T12:19:47;2.40;;;1.30;;
15425;SDS011;7812;50.072;7.036;2023-06-26T12:22:13;3.33;;;1.50;;
15425;SDS011;7812;50.072;7.036;2023-06-26T12:24:39;3.80;;;1.53;;
15425;SDS011;7812;50.072;7.036;2023-06-26T12:27:12;2.87;;;1.43;;
15425;SDS011;7812;50.072;7.036;2023-06-26T12:29:40;2.90;;;1.40;;
15425;SDS011;7812;50.072;7.036;2023-06-26T12:32:14;3.07;;;1.40;;
15425;SDS011;7812;50.072;7.036;2023-06-26T12:34:40;2.20;;;1.20;;
15425;SDS011;7812;50.072;7.036;2023-06-26T12:39:48;1.97;;;1.20;;
15425;SDS011;7812;50.072;7.036;2023-06-26T12:42:19;2.30;;;1.20;;
15425;SDS011;7812;50.072;7.036;2023-06-26T12:44:46;4.90;;;1.30;;
15425;SDS011;7812;50.072;7.036;2023-06-26T12:47:12;2.13;;;1.40;;
15425;SDS011;7812;50.072;7.036;2023-06-26T12:49:40;4.07;;;1.90;;
15425;SDS011;7812;50.072;7.036;2023-06-26T12:52:16;2.53;;;1.40;;
15425;SDS011;7812;50.072;7.036;2023-06-26T12:54:44;1.73;;;1.30;;
15425;SDS011;7812;50.072;7.036;2023-06-26T12:57:11;2.60;;;1.57;;
15425;SDS011;7812;50.072;7.036;2023-06-26T12:59:39;3.20;;;1.50;;
15425;SDS011;7812;50.072;7.036;2023-06-26T13:02:05;2.67;;;1.40;;
15425;SDS011;7812;50.072;7.036;2023-06-26T13:04:33;1.90;;;1.33;;
15425;SDS011;7812;50.072;7.036;2023-06-26T13:06:58;3.30;;;1.60;;
15425;SDS011;7812;50.072;7.036;2023-06-26T13:09:24;3.17;;;1.43;;
15425;SDS011;7812;50.072;7.036;2023-06-26T13:11:53;2.30;;;1.57;;
15425;SDS011;7812;50.072;7.036;2023-06-26T13:14:20;2.37;;;1.33;;
15425;SDS011;7812;50.072;7.036;2023-06-26T13:16:46;3.43;;;1.50;;
15425;SDS011;7812;50.072;7.036;2023-06-26T13:19:12;4.23;;;1.73;;
15425;SDS011;7812;50.072;7.036;2023-06-26T13:21:37;4.27;;;1.70;;
15425;SDS011;7812;50.072;7.036;2023-06-26T13:24:03;2.27;;;1.50;;
15425;SDS011;7812;50.072;7.036;2023-06-26T13:26:29;3.47;;;1.30;;
15425;SDS011;7812;50.072;7.036;2023-06-26T13:28:56;2.03;;;1.20;;
15425;SDS011;7812;50.072;7.036;2023-06-26T13:31:22;2.57;;;1.40;;
15425;SDS011;7812;50.072;7.036;2023-06-26T13:33:48;2.60;;;1.80;;
15425;SDS011;7812;50.072;7.036;2023-06-26T13:36:17;3.07;;;1.70;;
15425;SDS011;7812;50.072;7.036;2023-06-26T13:38:43;3.57;;;1.57;;
15425;SDS011;7812;50.072;7.036;2023-06-26T13:41:09;6.23;;;1.53;;
15425;SDS011;7812;50.072;7.036;2023-06-26T13:43:35;2.20;;;1.43;;
15425;SDS011;7812;50.072;7.036;2023-06-26T13:46:00;2.83;;;1.50;;
15425;SDS011;7812;50.072;7.036;2023-06-26T13:48:27;2.77;;;1.47;;
15425;SDS011;7812;50.072;7.036;2023-06-26T13:50:53;1.97;;;1.50;;
15425;SDS011;7812;50.072;7.036;2023-06-26T13:53:19;4.23;;;1.37;;
15425;SDS011;7812;50.072;7.036;2023-06-26T13:55:45;2.53;;;1.40;;
15425;SDS011;7812;50.072;7.036;2023-06-26T13:58:11;4.43;;;1.50;;
15425;SDS011;7812;50.072;7.036;2023-06-26T14:00:38;3.67;;;1.60;;
15425;SDS011;7812;50.072;7.036;2023-06-26T14:03:04;4.53;;;2.00;;
15425;SDS011;7812;50.072;7.036;2023-06-26T14:05:34;3.97;;;1.50;;
15425;SDS011;7812;50.072;7.036;2023-06-26T14:08:03;1.87;;;1.43;;
15425;SDS011;7812;50.072;7.036;2023-06-26T14:10:30;3.83;;;1.40;;
15425;SDS011;7812;50.072;7.036;2023-06-26T14:12:56;3.67;;;1.50;;
15425;SDS011;7812;50.072;7.036;2023-06-26T14:15:22;2.90;;;1.40;;
15425;SDS011;7812;50.072;7.036;2023-06-26T14:17:47;3.90;;;1.50;;
15425;SDS011;7812;50.072;7.036;2023-06-26T14:20:15;4.17;;;1.40;;
15425;SDS011;7812;50.072;7.036;2023-06-26T14:22:41;3.17;;;1.40;;
15425;SDS011;7812;50.072;7.036;2023-06-26T14:25:09;2.50;;;1.30;;
15425;SDS011;7812;50.072;7.036;2023-06-26T14:27:36;4.70;;;1.47;;
15425;SDS011;7812;50.072;7.036;2023-06-26T14:30:02;1.97;;;1.40;;
15425;SDS011;7812;50.072;7.036;2023-06-26T14:32:28;2.77;;;1.50;;
15425;SDS011;7812;50.072;7.036;2023-06-26T14:34:55;2.47;;;1.30;;
15425;SDS011;7812;50.072;7.036;2023-06-26T14:37:21;2.50;;;1.60;;
15425;SDS011;7812;50.072;7.036;2023-06-26T14:39:50;2.93;;;1.50;;
15425;SDS011;7812;50.072;7.036;2023-06-26T14:42:15;3.03;;;1.40;;
15425;SDS011;7812;50.072;7.036;2023-06-26T14:44:41;3.60;;;1.70;;
15425;SDS011;7812;50.072;7.036;2023-06-26T14:47:07;2.53;;;1.30;;
15425;SDS011;7812;50.072;7.036;2023-06-26T14:49:32;2.50;;;1.33;;
15425;SDS011;7812;50.072;7.036;2023-06-26T14:51:58;2.60;;;1.47;;
15425;SDS011;7812;50.072;7.036;2023-06-26T14:54:23;2.93;;;1.47;;
15425;SDS011;7812;50.072;7.036;2023-06-26T14:56:49;3.57;;;1.33;;
15425;SDS011;7812;50.072;7.036;2023-06-26T14:59:15;2.87;;;1.30;;
15425;SDS011;7812;50.072;7.036;2023-06-26T15:01:41;3.23;;;1.47;;
15425;SDS011;7812;50.072;7.036;2023-06-26T15:04:06;4.57;;;1.10;;
15425;SDS011;7812;50.072;7.036;2023-06-26T15:06:33;2.00;;;1.50;;
15425;SDS011;7812;50.072;7.036;2023-06-26T15:08:59;2.07;;;1.40;;
15425;SDS011;7812;50.072;7.036;2023-06-26T15:11:25;1.70;;;1.33;;